Terminal Aerodrome Forecast
Issued by NWS

Home | Current Version | Previous Version | Text Only | Print | Product List | Glossary On
Versions: 1 2 3 4 5 6 7 8 9 10 11 12 13 14 15 16 17
584
FTPA31 PHFO 241736
TAFHOG
TAF
PHOG 241736Z 2418/2518 08008KT P6SM VCSH FEW035 SCT060
     FM242000 06014G22KT P6SM VCSH FEW035 SCT060
     FM250600 08010KT P6SM FEW025 SCT045
      AMD LTD TO VIS AND WIND 2509/2516=

USA.gov is the U.S. government's official web portal to all federal, state and local government web resources and services.